createdAt,value
2023-03-29T00:01:10.475Z,67.78
2023-03-29T00:03:40.343Z,68.13
2023-03-29T00:06:09.834Z,68.54
2023-03-29T00:08:38.471Z,68.49
2023-03-29T00:11:08.334Z,68.83
2023-03-29T00:13:36.699Z,69.28
2023-03-29T00:16:05.167Z,69.36
2023-03-29T00:18:33.362Z,69.43
2023-03-29T00:21:02.066Z,68.38
2023-03-29T00:23:32.720Z,68.18
2023-03-29T00:26:01.242Z,67.96
2023-03-29T00:28:29.931Z,67.84
2023-03-29T00:31:10.415Z,68.39
2023-03-29T00:33:40.192Z,68.36
2023-03-29T00:36:10.440Z,67.69
2023-03-29T00:38:40.124Z,67.00
2023-03-29T00:41:09.116Z,67.01
2023-03-29T00:44:00.508Z,66.77
2023-03-29T00:46:30.635Z,66.13
2023-03-29T00:49:05.427Z,66.00
2023-03-29T00:51:37.454Z,66.28
2023-03-29T00:54:14.933Z,66.11
2023-03-29T00:56:47.552Z,65.83
2023-03-29T00:59:21.769Z,66.18
2023-03-29T01:01:54.603Z,66.40
2023-03-29T01:04:29.528Z,66.77
2023-03-29T01:07:07.356Z,67.44
2023-03-29T01:09:40.175Z,66.84
2023-03-29T01:12:17.245Z,67.00
2023-03-29T01:15:11.468Z,67.11
2023-03-29T01:17:43.426Z,67.36
2023-03-29T01:20:20.361Z,67.36
2023-03-29T01:23:02.782Z,67.66
2023-03-29T01:25:42.303Z,67.61
2023-03-29T01:28:14.948Z,67.78
2023-03-29T01:30:55.148Z,67.73
2023-03-29T01:33:28.434Z,67.71
2023-03-29T01:36:08.135Z,67.95
2023-03-29T01:38:49.711Z,67.88
2023-03-29T01:41:17.912Z,67.89
2023-03-29T01:43:56.930Z,68.29
2023-03-29T01:46:45.097Z,67.51
2023-03-29T01:49:19.528Z,67.35
2023-03-29T01:52:00.036Z,67.50
2023-03-29T01:54:54.980Z,67.24
2023-03-29T01:57:25.145Z,67.25
2023-03-29T01:59:57.788Z,66.90
2023-03-29T02:02:30.582Z,66.77
2023-03-29T02:05:00.274Z,66.85
2023-03-29T02:07:32.377Z,66.30
2023-03-29T02:10:02.232Z,66.23
2023-03-29T02:12:31.275Z,67.04
2023-03-29T02:15:01.047Z,66.26
2023-03-29T02:17:30.593Z,66.17
2023-03-29T02:20:14.197Z,66.17
2023-03-29T02:22:52.263Z,65.80
2023-03-29T02:25:22.629Z,66.16
2023-03-29T02:27:52.914Z,65.43
2023-03-29T02:30:21.654Z,65.32
2023-03-29T02:32:56.053Z,65.56
2023-03-29T02:35:35.170Z,66.05
2023-03-29T02:38:06.528Z,66.34
2023-03-29T02:40:37.794Z,65.87
2023-03-29T02:43:09.326Z,65.38
2023-03-29T02:45:40.066Z,65.56
2023-03-29T02:48:12.252Z,64.54
2023-03-29T02:50:43.114Z,65.08
2023-03-29T02:53:17.908Z,64.94
2023-03-29T02:55:47.032Z,65.63
2023-03-29T02:58:15.725Z,66.17
2023-03-29T03:00:49.190Z,66.53
2023-03-29T03:03:17.542Z,65.69
2023-03-29T03:05:47.883Z,65.75
2023-03-29T03:08:16.141Z,65.42
2023-03-29T03:10:45.928Z,64.71
2023-03-29T03:13:14.178Z,65.36
2023-03-29T03:15:42.990Z,65.43
2023-03-29T03:18:12.822Z,65.16
2023-03-29T03:20:41.211Z,64.51
2023-03-29T03:23:09.875Z,64.77
2023-03-29T03:25:38.528Z,64.00
2023-03-29T03:28:06.740Z,64.21
2023-03-29T03:30:34.984Z,64.27
2023-03-29T03:33:22.662Z,64.81
2023-03-29T03:36:11.432Z,64.63
2023-03-29T03:38:40.200Z,64.45
2023-03-29T03:41:09.175Z,64.24
2023-03-29T03:43:37.567Z,64.54
2023-03-29T03:46:05.880Z,64.87
2023-03-29T03:48:34.186Z,64.63
2023-03-29T03:51:18.503Z,64.91
2023-03-29T03:53:47.050Z,64.00
2023-03-29T03:56:16.442Z,64.13
2023-03-29T03:59:05.319Z,64.78
2023-03-29T04:01:48.417Z,64.70
2023-03-29T04:04:19.852Z,64.81
2023-03-29T04:07:13.291Z,64.71
2023-03-29T04:10:00.494Z,64.53
2023-03-29T04:12:40.982Z,65.33
2023-03-29T04:15:10.543Z,65.38
2023-03-29T04:17:40.830Z,65.33
2023-03-29T04:20:28.232Z,66.06
2023-03-29T04:22:56.576Z,65.55
2023-03-29T04:25:25.331Z,66.44
2023-03-29T04:28:13.544Z,65.92
2023-03-29T04:30:58.182Z,66.49
2023-03-29T04:33:47.542Z,65.81
2023-03-29T04:36:16.244Z,66.09
2023-03-29T04:38:47.371Z,65.16
2023-03-29T04:41:16.846Z,64.37
2023-03-29T04:43:59.202Z,64.69
2023-03-29T04:46:33.055Z,64.04
2023-03-29T04:49:20.249Z,64.25
2023-03-29T04:51:51.591Z,63.22
2023-03-29T04:54:22.090Z,63.07
2023-03-29T04:57:17.288Z,62.76
2023-03-29T05:00:15.904Z,63.12
2023-03-29T05:03:11.790Z,63.24
2023-03-29T05:05:44.450Z,62.74
2023-03-29T05:08:12.814Z,63.25
2023-03-29T05:11:11.851Z,63.33
2023-03-29T05:13:40.233Z,62.90
2023-03-29T05:16:09.063Z,62.61
2023-03-29T05:18:37.549Z,61.85
2023-03-29T05:21:06.715Z,62.07
2023-03-29T05:23:36.284Z,61.99
2023-03-29T05:26:23.749Z,61.68
2023-03-29T05:28:54.518Z,61.00
2023-03-29T05:31:26.776Z,61.21
2023-03-29T05:33:56.201Z,59.97
2023-03-29T05:36:25.004Z,59.99
2023-03-29T05:38:53.295Z,60.58
2023-03-29T05:41:23.918Z,59.90
2023-03-29T05:44:26.473Z,59.68
2023-03-29T05:46:59.958Z,60.18
2023-03-29T05:49:28.311Z,59.51
2023-03-29T05:52:06.821Z,59.87
2023-03-29T05:54:37.781Z,60.40
2023-03-29T05:57:09.083Z,59.48
2023-03-29T05:59:38.605Z,58.74
2023-03-29T06:02:07.474Z,59.29
2023-03-29T06:04:37.515Z,58.47
2023-03-29T06:07:24.768Z,57.34
2023-03-29T06:10:12.584Z,57.38
2023-03-29T06:12:43.069Z,57.76
2023-03-29T06:15:13.357Z,57.66
2023-03-29T06:17:53.747Z,56.66
2023-03-29T06:20:22.866Z,55.86
2023-03-29T06:22:54.737Z,54.81
2023-03-29T06:25:25.119Z,54.73
2023-03-29T06:27:54.307Z,54.56
2023-03-29T06:30:22.839Z,53.77
2023-03-29T06:32:54.867Z,53.57
2023-03-29T06:35:48.688Z,53.57
2023-03-29T06:38:21.092Z,52.92
2023-03-29T06:41:03.894Z,52.62
2023-03-29T06:43:43.854Z,50.79
2023-03-29T06:46:17.215Z,50.48
2023-03-29T06:48:56.672Z,50.94
2023-03-29T06:51:31.560Z,51.39
2023-03-29T06:54:00.330Z,48.75
2023-03-29T06:56:29.996Z,48.13
2023-03-29T06:59:08.634Z,46.95
2023-03-29T07:01:47.405Z,46.38
2023-03-29T07:04:24.805Z,46.86
2023-03-29T07:07:20.532Z,45.71
2023-03-29T07:09:55.526Z,44.64
2023-03-29T07:12:48.584Z,43.73
2023-03-29T07:15:21.773Z,43.77
2023-03-29T07:18:22.381Z,44.43
2023-03-29T07:20:52.276Z,44.00
2023-03-29T07:23:20.579Z,43.96
2023-03-29T07:25:50.649Z,44.65
2023-03-29T07:28:20.530Z,42.66
2023-03-29T07:30:51.615Z,40.73
2023-03-29T07:33:26.394Z,39.20
2023-03-29T07:36:02.171Z,38.24
2023-03-29T07:38:32.665Z,36.16
2023-03-29T07:41:11.790Z,35.76
2023-03-29T07:43:52.047Z,36.13
2023-03-29T07:46:25.171Z,33.57
2023-03-29T07:48:53.916Z,32.33
2023-03-29T07:51:24.569Z,32.70
2023-03-29T07:54:03.895Z,31.49
2023-03-29T07:56:51.168Z,30.25
2023-03-29T07:59:23.739Z,29.27
2023-03-29T08:02:11.104Z,29.20
2023-03-29T08:04:48.542Z,29.76
2023-03-29T08:07:21.719Z,28.91
2023-03-29T08:10:21.187Z,28.14
2023-03-29T08:13:07.491Z,27.92
2023-03-29T08:16:09.303Z,27.19
2023-03-29T08:18:43.991Z,25.89
2023-03-29T08:21:19.889Z,25.81
2023-03-29T08:23:55.122Z,25.36
2023-03-29T08:26:31.622Z,24.96
2023-03-29T08:29:00.798Z,24.61
2023-03-29T08:31:30.857Z,24.59
2023-03-29T08:34:00.235Z,24.09
2023-03-29T08:36:44.766Z,23.04
2023-03-29T08:39:20.600Z,22.32
2023-03-29T08:41:58.551Z,22.30
2023-03-29T08:44:50.395Z,22.12
2023-03-29T08:47:42.469Z,22.66
2023-03-29T08:50:14.201Z,22.28
2023-03-29T08:52:55.984Z,22.07
2023-03-29T08:55:49.761Z,20.87
2023-03-29T08:58:33.805Z,21.63
2023-03-29T09:01:06.326Z,20.59
2023-03-29T09:03:48.047Z,19.50
2023-03-29T09:06:23.122Z,20.57
2023-03-29T09:08:53.610Z,20.73
2023-03-29T09:11:33.688Z,19.60
2023-03-29T09:14:23.630Z,19.96
2023-03-29T09:17:20.546Z,19.89
2023-03-29T09:20:28.200Z,20.51
2023-03-29T09:23:00.421Z,20.12
2023-03-29T09:25:54.244Z,20.13
2023-03-29T09:28:38.453Z,18.48
2023-03-29T09:31:21.597Z,18.49
2023-03-29T09:34:00.045Z,18.09
2023-03-29T09:36:43.556Z,18.64
2023-03-29T09:39:15.172Z,17.80
2023-03-29T09:41:59.095Z,17.71
2023-03-29T09:44:33.602Z,17.94
2023-03-29T09:47:29.755Z,17.44
2023-03-29T09:50:19.849Z,17.51
2023-03-29T09:52:56.704Z,18.14
2023-03-29T09:55:29.620Z,17.05
2023-03-29T09:58:16.534Z,17.10
2023-03-29T10:00:48.737Z,17.42
2023-03-29T10:03:24.068Z,17.00
2023-03-29T10:06:14.810Z,16.08
2023-03-29T10:08:59.163Z,18.41
2023-03-29T10:11:38.528Z,16.46
2023-03-29T10:14:18.387Z,17.35
2023-03-29T10:16:54.711Z,16.51
2023-03-29T10:19:34.549Z,16.53
2023-03-29T10:22:14.744Z,17.08
2023-03-29T10:24:49.328Z,16.10
2023-03-29T10:27:23.441Z,15.66
2023-03-29T10:29:52.411Z,15.32
2023-03-29T10:32:20.589Z,15.44
2023-03-29T10:34:50.490Z,15.96
2023-03-29T10:37:21.283Z,16.19
2023-03-29T10:39:50.802Z,16.17
2023-03-29T10:42:23.790Z,16.10
2023-03-29T10:44:58.064Z,15.31
2023-03-29T10:47:26.960Z,15.92
2023-03-29T10:49:58.991Z,15.75
2023-03-29T10:52:30.207Z,15.08
2023-03-29T10:55:00.235Z,15.80
2023-03-29T10:57:50.205Z,15.92
2023-03-29T11:00:58.058Z,15.98
2023-03-29T11:03:44.907Z,15.73
2023-03-29T11:06:32.701Z,14.91
2023-03-29T11:09:16.210Z,14.75
2023-03-29T11:12:12.170Z,14.78
2023-03-29T11:15:03.158Z,16.54
2023-03-29T11:17:51.377Z,16.66
2023-03-29T11:20:32.767Z,18.00
2023-03-29T11:23:30.647Z,18.95
2023-03-29T11:26:23.970Z,20.94
2023-03-29T11:29:16.463Z,21.63
2023-03-29T11:32:00.456Z,22.52
2023-03-29T11:34:59.637Z,24.73
2023-03-29T11:37:33.012Z,26.36
2023-03-29T11:40:32.168Z,26.41
2023-03-29T11:43:04.649Z,28.49
2023-03-29T11:45:40.056Z,28.24
2023-03-29T11:48:17.714Z,28.35
2023-03-29T11:50:57.841Z,30.78
2023-03-29T11:54:24.949Z,30.87
2023-03-29T11:57:04.562Z,31.50
2023-03-29T11:59:52.248Z,33.36
2023-03-29T12:03:00.016Z,32.40
2023-03-29T12:05:42.225Z,32.47
2023-03-29T12:08:13.121Z,34.11
2023-03-29T12:10:46.317Z,33.39
2023-03-29T12:13:30.422Z,34.82
2023-03-29T12:16:10.082Z,33.53
2023-03-29T12:18:45.890Z,34.16
2023-03-29T12:21:21.862Z,33.35
2023-03-29T12:23:52.377Z,34.61
2023-03-29T12:26:45.914Z,34.99
2023-03-29T12:29:32.254Z,34.77
2023-03-29T12:32:28.778Z,33.95
2023-03-29T12:35:06.606Z,33.85
2023-03-29T12:38:05.064Z,34.55
2023-03-29T12:41:02.156Z,35.90
2023-03-29T12:43:54.409Z,36.34
2023-03-29T12:46:34.616Z,37.42
2023-03-29T12:49:23.652Z,36.93
2023-03-29T12:51:53.165Z,37.06
2023-03-29T12:54:27.495Z,36.56
2023-03-29T12:57:01.536Z,36.21
2023-03-29T12:59:38.819Z,37.71
2023-03-29T13:02:14.147Z,37.22
2023-03-29T13:04:50.231Z,36.05
2023-03-29T13:07:26.535Z,36.40
2023-03-29T13:09:59.984Z,36.01
2023-03-29T13:12:42.316Z,35.62
2023-03-29T13:15:19.518Z,36.46
2023-03-29T13:18:11.675Z,36.35
2023-03-29T13:20:50.875Z,35.47
2023-03-29T13:23:25.104Z,36.11
2023-03-29T13:26:11.615Z,36.07
2023-03-29T13:29:15.600Z,36.57
2023-03-29T13:31:53.960Z,36.40
2023-03-29T13:34:55.103Z,36.68
2023-03-29T13:37:28.961Z,35.33
2023-03-29T13:39:57.281Z,34.98
2023-03-29T13:42:25.517Z,36.84
2023-03-29T13:45:14.200Z,36.80
2023-03-29T13:47:54.507Z,37.51
2023-03-29T13:50:40.823Z,35.50
2023-03-29T13:53:28.150Z,35.56
2023-03-29T13:55:58.550Z,35.95
2023-03-29T13:58:38.729Z,36.42
2023-03-29T14:01:35.226Z,36.55
2023-03-29T14:04:06.000Z,36.54
2023-03-29T14:06:37.640Z,37.22
2023-03-29T14:09:08.894Z,36.51
2023-03-29T14:11:37.075Z,37.70
2023-03-29T14:14:08.562Z,36.77
2023-03-29T14:16:39.223Z,38.30
2023-03-29T14:19:29.997Z,38.79
2023-03-29T14:22:01.129Z,38.15
2023-03-29T14:24:39.232Z,39.02
2023-03-29T14:27:10.375Z,38.30
2023-03-29T14:29:38.823Z,38.49
2023-03-29T14:32:13.944Z,38.14
2023-03-29T14:34:43.247Z,38.32
2023-03-29T14:37:18.828Z,38.42
2023-03-29T14:39:47.120Z,39.48
2023-03-29T14:42:22.285Z,39.63
2023-03-29T14:44:51.150Z,39.85
2023-03-29T14:47:31.610Z,38.96
2023-03-29T14:50:01.872Z,38.50
2023-03-29T14:52:32.246Z,38.68
2023-03-29T14:55:02.373Z,38.39
2023-03-29T14:57:39.593Z,38.33
2023-03-29T15:00:39.479Z,38.92
2023-03-29T15:03:14.441Z,38.69
2023-03-29T15:05:47.675Z,38.11
2023-03-29T15:08:23.622Z,38.05
2023-03-29T15:10:52.250Z,38.20
2023-03-29T15:13:24.674Z,37.53
2023-03-29T15:15:57.389Z,37.23
2023-03-29T15:18:39.647Z,37.77
2023-03-29T15:21:09.288Z,37.78
2023-03-29T15:23:41.337Z,37.57
2023-03-29T15:26:14.812Z,38.22
2023-03-29T15:28:49.734Z,37.33
2023-03-29T15:31:20.176Z,37.93
2023-03-29T15:33:48.323Z,38.10
2023-03-29T15:36:16.782Z,37.56
2023-03-29T15:38:49.500Z,37.82
2023-03-29T15:41:17.702Z,37.93
2023-03-29T15:43:46.792Z,38.01
2023-03-29T15:46:16.540Z,37.46
2023-03-29T15:48:44.830Z,37.84
2023-03-29T15:51:13.146Z,37.41
2023-03-29T15:53:41.629Z,37.37
2023-03-29T15:56:15.889Z,37.71
2023-03-29T15:58:44.472Z,37.73
2023-03-29T16:01:37.826Z,37.75
2023-03-29T16:04:17.841Z,38.15
2023-03-29T16:06:52.897Z,38.05
2023-03-29T16:09:22.622Z,37.98
2023-03-29T16:11:51.160Z,38.60
2023-03-29T16:14:27.050Z,38.36
2023-03-29T16:16:57.358Z,38.53
2023-03-29T16:19:27.272Z,39.00
2023-03-29T16:21:55.997Z,39.65
2023-03-29T16:24:29.839Z,39.26
2023-03-29T16:26:59.727Z,39.74
2023-03-29T16:29:28.293Z,39.85
2023-03-29T16:31:57.354Z,40.33
2023-03-29T16:34:26.852Z,40.72
2023-03-29T16:36:55.023Z,40.87
2023-03-29T16:39:23.186Z,40.83
2023-03-29T16:41:51.362Z,41.33
2023-03-29T16:44:27.015Z,41.34
2023-03-29T16:46:57.549Z,41.69
2023-03-29T16:49:25.695Z,41.26
2023-03-29T16:51:53.906Z,41.87
2023-03-29T16:54:25.781Z,42.30
2023-03-29T16:56:54.236Z,41.89
2023-03-29T16:59:22.524Z,42.11
2023-03-29T17:01:50.840Z,42.63
2023-03-29T17:04:19.270Z,43.08
2023-03-29T17:06:47.619Z,43.27
2023-03-29T17:09:17.728Z,43.75
2023-03-29T17:11:46.410Z,43.70
2023-03-29T17:14:14.654Z,44.42
2023-03-29T17:16:42.926Z,44.75
2023-03-29T17:19:11.389Z,44.89
2023-03-29T17:21:39.767Z,45.10
2023-03-29T17:24:09.761Z,45.35
2023-03-29T17:26:38.311Z,45.26
2023-03-29T17:29:06.615Z,45.56
2023-03-29T17:31:36.347Z,46.13
2023-03-29T17:34:04.435Z,46.51
2023-03-29T17:36:34.878Z,46.62
2023-03-29T17:39:04.486Z,46.47
2023-03-29T17:41:32.666Z,47.04
2023-03-29T17:44:01.294Z,46.92
2023-03-29T17:46:29.622Z,47.16
2023-03-29T17:48:59.311Z,46.82
2023-03-29T17:51:27.980Z,46.71
2023-03-29T17:53:57.265Z,46.44
2023-03-29T17:56:26.695Z,47.02
2023-03-29T17:58:58.483Z,46.42
2023-03-29T18:01:26.651Z,45.81
2023-03-29T18:03:55.002Z,45.70
2023-03-29T18:06:23.255Z,45.45
2023-03-29T18:08:53.397Z,45.24
2023-03-29T18:11:24.661Z,45.39
2023-03-29T18:13:53.690Z,45.03
2023-03-29T18:16:22.497Z,45.16
2023-03-29T18:18:51.089Z,45.19
2023-03-29T18:21:20.288Z,45.66
2023-03-29T18:23:50.640Z,46.37
2023-03-29T18:26:19.104Z,46.03
2023-03-29T18:28:51.106Z,46.34
2023-03-29T18:31:20.005Z,46.13
2023-03-29T18:33:48.425Z,46.02
2023-03-29T18:36:16.932Z,46.66
2023-03-29T18:38:45.863Z,46.17
2023-03-29T18:41:17.155Z,47.12
2023-03-29T18:43:46.851Z,46.79
2023-03-29T18:46:15.192Z,47.20
2023-03-29T18:48:43.380Z,47.77
2023-03-29T18:51:12.712Z,47.15
2023-03-29T18:53:43.134Z,47.12
2023-03-29T18:56:11.544Z,47.14
2023-03-29T18:58:39.919Z,47.82
2023-03-29T19:01:09.765Z,47.59
2023-03-29T19:03:38.125Z,47.98
2023-03-29T19:06:07.999Z,48.30
2023-03-29T19:08:38.850Z,47.94
2023-03-29T19:11:09.398Z,48.87
2023-03-29T19:13:37.896Z,49.42
2023-03-29T19:16:06.392Z,50.68
2023-03-29T19:18:34.833Z,50.33
2023-03-29T19:21:03.078Z,50.43
2023-03-29T19:23:31.622Z,50.18
2023-03-29T19:26:05.739Z,51.11
2023-03-29T19:28:34.647Z,50.25
2023-03-29T19:31:04.279Z,50.05
2023-03-29T19:33:33.090Z,50.01
2023-03-29T19:36:01.641Z,50.11
2023-03-29T19:38:30.168Z,50.09
2023-03-29T19:40:58.369Z,50.31
2023-03-29T19:43:27.183Z,51.44
2023-03-29T19:45:55.447Z,52.17
2023-03-29T19:48:24.208Z,52.41
2023-03-29T19:50:53.106Z,52.34
2023-03-29T19:53:23.246Z,52.65
2023-03-29T19:55:52.543Z,52.76
2023-03-29T19:58:21.736Z,53.67
2023-03-29T20:00:53.315Z,54.17
2023-03-29T20:03:23.248Z,55.09
2023-03-29T20:05:51.523Z,55.50
2023-03-29T20:08:19.655Z,55.79
2023-03-29T20:10:47.965Z,55.02
2023-03-29T20:13:24.536Z,56.27
2023-03-29T20:15:59.923Z,55.58
2023-03-29T20:18:28.275Z,55.55
2023-03-29T20:20:56.398Z,56.11
2023-03-29T20:23:24.653Z,56.32
2023-03-29T20:25:53.563Z,56.16
2023-03-29T20:28:21.670Z,56.05
2023-03-29T20:30:51.436Z,55.62
2023-03-29T20:33:21.546Z,55.55
2023-03-29T20:35:49.928Z,55.36
2023-03-29T20:38:18.168Z,55.75
2023-03-29T20:40:46.396Z,55.70
2023-03-29T20:43:18.392Z,55.51
2023-03-29T20:45:53.822Z,55.71
2023-03-29T20:48:24.327Z,55.75
2023-03-29T20:50:52.655Z,55.87
2023-03-29T20:53:20.886Z,55.49
2023-03-29T20:55:49.116Z,55.70
2023-03-29T20:58:17.782Z,55.80
2023-03-29T21:00:46.906Z,55.92
2023-03-29T21:03:15.232Z,55.82
2023-03-29T21:05:43.628Z,55.80
2023-03-29T21:08:11.777Z,56.12
2023-03-29T21:10:42.490Z,56.25
2023-03-29T21:13:10.786Z,56.25
2023-03-29T21:15:40.657Z,56.16
2023-03-29T21:18:09.000Z,55.99
2023-03-29T21:20:37.969Z,56.41
2023-03-29T21:23:06.326Z,56.64
2023-03-29T21:25:34.351Z,56.24
2023-03-29T21:28:02.439Z,56.44
2023-03-29T21:30:32.035Z,56.25
2023-03-29T21:33:00.836Z,56.56
2023-03-29T21:35:29.004Z,56.84
2023-03-29T21:37:57.283Z,56.59
2023-03-29T21:40:25.863Z,56.42
2023-03-29T21:42:54.143Z,56.06
2023-03-29T21:45:22.592Z,55.94
2023-03-29T21:47:51.338Z,55.61
2023-03-29T21:50:19.541Z,55.58
2023-03-29T21:52:48.725Z,55.58
2023-03-29T21:55:19.652Z,55.44
2023-03-29T21:57:48.412Z,55.90
2023-03-29T22:00:18.069Z,55.68
2023-03-29T22:02:46.765Z,55.47
2023-03-29T22:05:16.350Z,56.55
2023-03-29T22:07:44.719Z,57.56
2023-03-29T22:10:13.077Z,57.87
2023-03-29T22:12:41.531Z,58.72
2023-03-29T22:15:15.084Z,58.96
2023-03-29T22:17:43.475Z,58.69
2023-03-29T22:20:15.011Z,58.78
2023-03-29T22:22:45.861Z,58.50
2023-03-29T22:25:14.448Z,59.87
2023-03-29T22:27:46.996Z,59.99
2023-03-29T22:30:16.446Z,59.49
2023-03-29T22:32:45.068Z,60.07
2023-03-29T22:35:13.261Z,59.74
2023-03-29T22:37:43.693Z,59.32
2023-03-29T22:40:13.439Z,60.81
2023-03-29T22:42:41.749Z,60.96
2023-03-29T22:45:11.055Z,61.04
2023-03-29T22:47:39.232Z,60.77
2023-03-29T22:50:08.313Z,61.03
2023-03-29T22:52:36.498Z,61.22
2023-03-29T22:55:05.012Z,62.19
2023-03-29T22:57:33.220Z,62.48
2023-03-29T23:00:01.787Z,61.92
2023-03-29T23:02:29.944Z,62.54
2023-03-29T23:04:58.282Z,62.11
2023-03-29T23:07:28.129Z,62.86
2023-03-29T23:09:56.608Z,62.84
2023-03-29T23:12:24.728Z,62.95
2023-03-29T23:14:53.142Z,62.57
2023-03-29T23:17:21.508Z,63.27
2023-03-29T23:19:49.646Z,63.20
2023-03-29T23:22:17.694Z,63.33
2023-03-29T23:24:47.433Z,63.66
2023-03-29T23:27:15.763Z,64.12
2023-03-29T23:29:45.328Z,65.96
2023-03-29T23:32:15.759Z,66.35
2023-03-29T23:34:44.681Z,66.44
2023-03-29T23:37:12.956Z,66.69
2023-03-29T23:39:41.641Z,66.39
2023-03-29T23:42:10.647Z,66.46
2023-03-29T23:44:42.588Z,65.93
2023-03-29T23:47:14.075Z,65.83
2023-03-29T23:49:42.204Z,65.66
2023-03-29T23:52:10.465Z,65.37
2023-03-29T23:54:38.585Z,65.07
2023-03-29T23:57:10.952Z,65.57
2023-03-29T23:59:40.122Z,66.01
